Time;durP1;ratioP1;P1;durP2;ratioP2;P2;SDS_P1;SDS_P2;PMS_P1;PMS_P2;Temp;Humidity;BMP_temperature;BMP_pressure;BME280_temperature;BME280_humidity;BME280_pressure;Samples;Min_cycle;Max_cycle;Signal;HPM_P1;HPM_P2
2021/05/15 00:01:08;;;;;;;2.58;0.70;;;12.40;99.90;;;;;;4954580;28;20369;-62
2021/05/15 00:03:34;;;;;;;2.05;0.73;;;12.50;99.90;;;;;;4955021;28;20026;-62
2021/05/15 00:06:01;;;;;;;4.15;0.70;;;12.40;99.90;;;;;;4971954;28;20118;-66
2021/05/15 00:08:26;;;;;;;1.30;0.60;;;12.50;99.90;;;;;;4954940;28;20058;-64
2021/05/15 00:10:52;;;;;;;1.33;0.60;;;12.50;99.90;;;;;;4971983;28;20117;-65
2021/05/15 00:13:19;;;;;;;2.33;0.70;;;12.40;99.90;;;;;;4975177;28;20110;-63
2021/05/15 00:15:45;;;;;;;1.27;0.47;;;12.40;99.90;;;;;;4974897;28;20038;-62
2021/05/15 00:18:11;;;;;;;1.35;0.85;;;12.40;99.90;;;;;;4956324;28;20070;-63
2021/05/15 00:20:36;;;;;;;2.88;1.13;;;12.40;99.90;;;;;;4973772;28;20424;-64
2021/05/15 00:23:02;;;;;;;2.75;0.60;;;12.40;99.90;;;;;;4955770;28;20034;-63
2021/05/15 00:25:28;;;;;;;1.10;0.60;;;12.30;99.90;;;;;;4956030;28;20055;-63
2021/05/15 00:27:53;;;;;;;4.07;0.63;;;12.30;99.90;;;;;;4955788;28;20381;-62
2021/05/15 00:30:19;;;;;;;1.70;0.50;;;12.30;99.90;;;;;;4973970;28;20038;-62
2021/05/15 00:32:45;;;;;;;2.50;0.75;;;12.30;99.90;;;;;;4973852;28;20034;-62
2021/05/15 00:35:11;;;;;;;0.80;0.50;;;12.30;99.90;;;;;;4973028;28;20465;-63
2021/05/15 00:37:37;;;;;;;1.27;0.55;;;12.20;99.90;;;;;;4956155;28;20129;-62
2021/05/15 00:40:06;;;;;;;3.25;0.80;;;12.30;99.90;;;;;;4955275;28;20126;-62
2021/05/15 00:42:33;;;;;;;1.27;0.63;;;12.20;99.90;;;;;;4973476;28;20398;-62
2021/05/15 00:44:58;;;;;;;0.93;0.52;;;12.30;99.90;;;;;;4972959;28;20027;-61
2021/05/15 00:47:24;;;;;;;1.02;0.50;;;12.30;99.90;;;;;;4955779;28;20093;-62
2021/05/15 00:49:51;;;;;;;0.93;0.60;;;12.20;99.90;;;;;;4973263;28;20105;-62
2021/05/15 00:52:19;;;;;;;3.35;0.95;;;12.20;99.90;;;;;;4955444;28;20027;-62
2021/05/15 00:54:46;;;;;;;3.85;0.68;;;12.30;99.90;;;;;;4973152;28;20023;-62
2021/05/15 00:57:12;;;;;;;1.48;0.60;;;12.20;99.90;;;;;;4972466;28;20042;-62
2021/05/15 00:59:40;;;;;;;3.88;1.75;;;12.20;99.90;;;;;;4955429;28;20054;-62
2021/05/15 01:02:08;;;;;;;1.92;0.85;;;12.10;99.90;;;;;;4954873;28;20022;-63
2021/05/15 01:04:34;;;;;;;1.75;0.70;;;12.10;99.90;;;;;;4973283;28;20065;-63
2021/05/15 01:07:01;;;;;;;1.83;0.90;;;12.00;99.90;;;;;;4971813;28;20046;-62
2021/05/15 01:09:27;;;;;;;2.45;1.00;;;12.00;99.90;;;;;;4973409;28;20039;-61
2021/05/15 01:11:53;;;;;;;1.40;0.90;;;12.10;99.90;;;;;;4956126;28;20086;-62
2021/05/15 01:14:18;;;;;;;2.72;1.20;;;12.00;99.90;;;;;;4955215;28;20034;-63
2021/05/15 01:16:44;;;;;;;2.75;0.80;;;12.00;99.90;;;;;;4972867;28;20027;-62
2021/05/15 01:19:12;;;;;;;1.45;0.95;;;12.00;99.90;;;;;;4954526;28;20046;-61
2021/05/15 01:21:37;;;;;;;1.38;0.77;;;11.90;99.90;;;;;;4972591;28;20406;-61
2021/05/15 01:24:04;;;;;;;3.67;1.70;;;11.90;99.90;;;;;;4971978;28;20098;-62
2021/05/15 01:26:31;;;;;;;2.30;1.20;;;11.90;99.90;;;;;;4954949;28;20118;-62
2021/05/15 01:29:01;;;;;;;1.52;0.98;;;11.80;99.90;;;;;;4971947;28;20206;-63
2021/05/15 01:31:29;;;;;;;2.35;1.35;;;11.90;99.90;;;;;;4972516;28;20026;-62
2021/05/15 01:33:56;;;;;;;3.97;1.85;;;11.80;99.90;;;;;;4971772;28;20037;-73
2021/05/15 01:36:23;;;;;;;2.67;1.40;;;11.80;99.90;;;;;;4955024;28;20045;-62
2021/05/15 01:38:49;;;;;;;2.25;1.30;;;11.70;99.90;;;;;;4954625;28;20034;-62
2021/05/15 01:41:16;;;;;;;2.83;1.00;;;11.70;99.90;;;;;;4953767;28;20086;-61
2021/05/15 01:43:42;;;;;;;1.17;0.80;;;11.80;99.90;;;;;;4971109;28;20089;-63
2021/05/15 01:46:09;;;;;;;1.35;0.77;;;11.80;99.90;;;;;;4971854;28;20113;-63
2021/05/15 01:48:36;;;;;;;2.55;1.13;;;11.80;99.90;;;;;;4972230;28;20035;-63
2021/05/15 01:51:10;;;;;;;2.22;0.95;;;11.70;99.90;;;;;;4971550;28;20050;-62
2021/05/15 01:53:40;;;;;;;2.83;1.35;;;11.80;99.90;;;;;;4972115;28;20035;-62
2021/05/15 01:56:09;;;;;;;1.45;1.00;;;11.80;99.90;;;;;;4971177;28;20036;-62
2021/05/15 01:58:36;;;;;;;2.55;0.77;;;11.80;99.90;;;;;;4971919;28;20480;-62
2021/05/15 02:01:03;;;;;;;10.25;1.05;;;11.80;99.90;;;;;;4970979;28;20042;-62
2021/05/15 02:03:29;;;;;;;1.77;0.80;;;11.80;99.90;;;;;;4971920;28;20038;-62
2021/05/15 02:05:55;;;;;;;4.78;0.68;;;11.70;99.90;;;;;;4972182;28;20161;-60
2021/05/15 02:08:21;;;;;;;1.90;1.40;;;11.70;99.90;;;;;;4970935;28;20490;-62
2021/05/15 02:10:49;;;;;;;1.50;1.10;;;11.80;99.90;;;;;;4954222;28;20034;-62
2021/05/15 02:13:17;;;;;;;2.75;1.08;;;11.70;99.90;;;;;;4953597;28;20405;-64
2021/05/15 02:15:43;;;;;;;1.92;0.60;;;11.70;99.90;;;;;;4954243;28;20413;-62
2021/05/15 02:18:09;;;;;;;1.67;0.70;;;11.60;99.90;;;;;;4972362;28;20030;-63
2021/05/15 02:20:35;;;;;;;2.15;0.90;;;11.30;99.90;;;;;;4972019;28;20034;-61
2021/05/15 02:23:01;;;;;;;3.70;0.60;;;11.30;99.90;;;;;;4971188;28;20338;-62
2021/05/15 02:25:27;;;;;;;1.25;0.70;;;11.30;99.90;;;;;;4954191;28;20508;-62
2021/05/15 02:27:54;;;;;;;2.22;0.60;;;11.30;99.90;;;;;;4971334;28;20129;-62
2021/05/15 02:30:21;;;;;;;1.55;1.05;;;11.30;99.90;;;;;;4970546;28;20464;-63
2021/05/15 02:32:47;;;;;;;1.05;0.70;;;11.40;99.90;;;;;;4953928;28;20035;-62
2021/05/15 02:35:13;;;;;;;1.23;0.60;;;11.30;99.90;;;;;;4953320;28;20041;-62
2021/05/15 02:37:40;;;;;;;1.20;0.63;;;11.40;99.90;;;;;;4971214;28;20374;-63
2021/05/15 02:40:07;;;;;;;1.58;0.60;;;11.40;99.90;;;;;;4953193;28;20038;-62
2021/05/15 02:42:33;;;;;;;1.40;0.60;;;11.40;99.90;;;;;;4953556;28;20118;-62
2021/05/15 02:44:59;;;;;;;3.83;0.80;;;11.40;99.90;;;;;;4953730;28;20049;-73
2021/05/15 02:47:25;;;;;;;2.08;0.70;;;11.40;99.90;;;;;;4971157;28;20516;-61
2021/05/15 02:49:50;;;;;;;1.15;0.65;;;11.40;99.90;;;;;;4970931;28;20035;-62
2021/05/15 02:52:17;;;;;;;1.23;0.57;;;11.50;99.90;;;;;;4953103;28;20424;-62
2021/05/15 02:54:42;;;;;;;1.63;0.80;;;11.40;99.90;;;;;;4971397;28;20093;-63
2021/05/15 02:57:08;;;;;;;1.70;0.68;;;11.30;99.90;;;;;;4953124;28;20023;-62
2021/05/15 02:59:35;;;;;;;0.75;0.50;;;11.30;99.90;;;;;;4971391;28;20473;-64
2021/05/15 03:02:02;;;;;;;1.83;0.60;;;11.40;99.90;;;;;;4952848;28;20543;-69
2021/05/15 03:04:28;;;;;;;2.95;0.80;;;11.30;99.90;;;;;;4971175;28;20035;-62
2021/05/15 03:06:54;;;;;;;2.63;0.70;;;11.30;99.90;;;;;;4970953;28;20148;-62
2021/05/15 03:09:19;;;;;;;2.05;0.82;;;11.30;99.90;;;;;;4970958;28;20362;-62
2021/05/15 03:11:45;;;;;;;1.73;0.70;;;11.40;99.90;;;;;;4953564;28;20434;-63
2021/05/15 03:14:11;;;;;;;1.40;0.50;;;11.30;99.90;;;;;;4953112;28;20035;-62
2021/05/15 03:16:36;;;;;;;1.05;0.40;;;11.40;99.90;;;;;;4954016;28;20117;-63
2021/05/15 03:19:03;;;;;;;2.40;0.68;;;11.40;99.90;;;;;;4970910;28;20038;-64
2021/05/15 03:21:29;;;;;;;1.88;0.57;;;11.30;99.90;;;;;;4954369;28;20421;-63
2021/05/15 03:23:55;;;;;;;0.98;0.50;;;11.30;99.90;;;;;;4953115;28;20051;-62
2021/05/15 03:26:20;;;;;;;1.02;0.50;;;11.30;99.90;;;;;;4972208;28;20027;-62
2021/05/15 03:28:46;;;;;;;4.30;0.73;;;11.30;99.90;;;;;;4955292;28;20491;-62
2021/05/15 03:31:12;;;;;;;3.05;0.82;;;11.30;99.90;;;;;;4955817;28;20034;-62
2021/05/15 03:33:38;;;;;;;6.32;2.33;;;11.30;99.90;;;;;;4973534;28;20027;-64
2021/05/15 03:36:04;;;;;;;1.60;1.05;;;11.40;99.90;;;;;;4955295;28;20050;-63
2021/05/15 03:38:31;;;;;;;2.83;1.10;;;11.30;99.90;;;;;;4954436;28;20109;-62
2021/05/15 03:40:57;;;;;;;1.60;0.98;;;11.30;99.90;;;;;;4970966;28;20114;-63
2021/05/15 03:43:23;;;;;;;1.38;0.82;;;11.40;99.90;;;;;;4953498;28;20290;-63
2021/05/15 03:45:51;;;;;;;1.50;0.85;;;11.30;99.90;;;;;;4954042;28;20027;-62
2021/05/15 03:48:20;;;;;;;1.52;1.25;;;11.40;99.90;;;;;;4970961;28;20038;-63
2021/05/15 03:50:55;;;;;;;2.67;1.25;;;11.40;99.90;;;;;;4953037;28;20039;-63
2021/05/15 03:53:21;;;;;;;2.13;1.38;;;11.50;99.90;;;;;;4970022;28;20563;-63
2021/05/15 03:55:47;;;;;;;1.88;1.00;;;11.40;99.90;;;;;;4953187;28;20544;-62
2021/05/15 03:58:14;;;;;;;1.33;0.88;;;11.40;99.90;;;;;;4969794;28;20392;-63
2021/05/15 04:00:40;;;;;;;1.63;1.10;;;11.40;99.90;;;;;;4970618;28;20035;-62
2021/05/15 04:03:06;;;;;;;1.95;1.75;;;11.40;99.90;;;;;;4954271;28;20038;-62
2021/05/15 04:05:32;;;;;;;2.75;1.17;;;11.40;99.90;;;;;;4972285;28;20337;-62
2021/05/15 04:07:57;;;;;;;2.40;1.40;;;11.30;99.90;;;;;;4959108;28;20050;-67
2021/05/15 04:10:23;;;;;;;1.48;0.98;;;11.20;99.90;;;;;;4956865;28;20454;-63
2021/05/15 04:18:09;;;;;;;2.17;1.30;;;11.30;99.90;;;;;;4975103;28;20145;-73
2021/05/15 04:20:40;;;;;;;2.75;1.02;;;11.40;99.90;;;;;;4978602;28;20043;-62
2021/05/15 04:23:06;;;;;;;3.50;1.40;;;11.30;99.90;;;;;;4960462;28;20456;-70
2021/05/15 04:25:32;;;;;;;1.13;0.90;;;11.40;99.90;;;;;;4979520;28;20046;-64
2021/05/15 04:27:58;;;;;;;3.17;1.58;;;11.30;99.90;;;;;;4977592;28;20109;-63
2021/05/15 04:30:25;;;;;;;4.22;1.13;;;11.40;99.90;;;;;;4956239;28;20118;-63
2021/05/15 04:32:51;;;;;;;2.83;1.10;;;11.50;99.90;;;;;;4973911;28;20113;-63
2021/05/15 04:35:17;;;;;;;4.97;1.48;;;11.40;99.90;;;;;;4955828;28;20133;-63
2021/05/15 04:37:43;;;;;;;4.45;1.27;;;11.40;99.90;;;;;;4956902;28;20039;-63
2021/05/15 04:40:09;;;;;;;1.58;1.15;;;11.40;99.90;;;;;;4957490;28;20038;-63
2021/05/15 04:42:37;;;;;;;2.55;2.15;;;11.40;99.90;;;;;;4976121;28;20054;-63
2021/05/15 04:45:08;;;;;;;1.90;1.27;;;11.40;99.90;;;;;;4975042;28;20416;-63
2021/05/15 04:47:34;;;;;;;3.05;0.95;;;11.50;99.90;;;;;;4974206;28;20030;-62
2021/05/15 04:50:01;;;;;;;3.90;1.73;;;11.40;99.90;;;;;;4973722;28;20436;-63
2021/05/15 04:52:26;;;;;;;2.17;1.27;;;11.40;99.90;;;;;;4955511;28;20848;-62
2021/05/15 04:54:52;;;;;;;1.42;1.00;;;11.50;99.90;;;;;;4973695;28;20065;-63
2021/05/15 04:57:18;;;;;;;2.40;1.30;;;11.50;99.90;;;;;;4954719;28;20026;-63
2021/05/15 04:59:44;;;;;;;1.25;0.98;;;11.60;99.90;;;;;;4972769;28;20448;-63
2021/05/15 05:02:10;;;;;;;1.88;1.48;;;11.60;99.90;;;;;;4973088;28;20439;-65
2021/05/15 05:04:35;;;;;;;1.40;1.20;;;11.50;99.90;;;;;;4958563;28;20035;-62
2021/05/15 05:07:02;;;;;;;1.27;1.17;;;11.60;99.90;;;;;;4957180;28;20034;-63
2021/05/15 05:09:27;;;;;;;1.23;0.93;;;11.60;99.90;;;;;;4972953;28;20221;-61
2021/05/15 05:11:53;;;;;;;2.42;1.10;;;11.70;99.90;;;;;;4955660;28;20042;-62
2021/05/15 05:14:19;;;;;;;2.90;1.40;;;11.50;99.90;;;;;;4973009;28;20566;-62
2021/05/15 05:16:45;;;;;;;1.80;1.40;;;11.50;99.90;;;;;;4955312;28;20069;-63
2021/05/15 05:19:11;;;;;;;1.10;1.00;;;11.60;99.90;;;;;;4971481;28;20504;-62
2021/05/15 05:21:38;;;;;;;1.55;1.23;;;11.70;99.90;;;;;;4955060;28;20113;-62
2021/05/15 05:24:04;;;;;;;6.95;1.05;;;11.80;99.90;;;;;;4973208;28;20062;-61
2021/05/15 05:26:34;;;;;;;2.50;1.05;;;11.80;99.90;;;;;;4955106;28;20023;-63
2021/05/15 05:29:03;;;;;;;1.23;1.02;;;11.80;99.90;;;;;;4972710;28;20460;-63
2021/05/15 05:31:30;;;;;;;2.97;1.15;;;11.90;99.90;;;;;;4972479;28;20296;-62
2021/05/15 05:33:56;;;;;;;18.17;1.15;;;11.80;99.90;;;;;;4955082;28;20123;-61
2021/05/15 05:36:22;;;;;;;2.17;1.48;;;12.00;99.90;;;;;;4954362;28;20453;-62
2021/05/15 05:38:47;;;;;;;1.50;0.77;;;12.00;99.90;;;;;;4972053;28;20081;-63
2021/05/15 05:41:13;;;;;;;4.15;1.25;;;12.00;99.90;;;;;;4954368;28;20035;-63
2021/05/15 05:43:38;;;;;;;2.47;1.25;;;12.00;99.90;;;;;;4972411;28;20460;-62
2021/05/15 05:46:04;;;;;;;2.75;1.08;;;12.10;99.90;;;;;;4954896;28;20034;-62
2021/05/15 05:48:30;;;;;;;3.28;1.27;;;12.10;99.90;;;;;;4971492;28;20342;-62
2021/05/15 05:50:55;;;;;;;8.90;1.35;;;12.10;99.90;;;;;;4955173;28;20045;-62
2021/05/15 05:53:21;;;;;;;2.03;1.15;;;12.10;99.90;;;;;;4954465;28;20034;-62
2021/05/15 05:55:46;;;;;;;2.08;1.23;;;12.30;99.90;;;;;;4954858;28;20376;-62
2021/05/15 05:58:12;;;;;;;2.83;1.15;;;12.40;99.90;;;;;;4971790;28;20101;-65
2021/05/15 06:00:38;;;;;;;2.05;1.00;;;12.40;99.90;;;;;;4954747;28;20038;-63
2021/05/15 06:03:03;;;;;;;1.73;1.25;;;12.40;99.90;;;;;;4954856;28;20027;-62
2021/05/15 06:05:29;;;;;;;3.30;1.63;;;12.30;99.90;;;;;;4971871;28;20050;-62
2021/05/15 06:08:05;;;;;;;1.15;1.05;;;12.40;99.90;;;;;;4955431;28;20034;-63
2021/05/15 06:10:30;;;;;;;2.67;1.70;;;12.50;99.90;;;;;;4971843;28;20444;-62
2021/05/15 06:12:56;;;;;;;2.88;1.25;;;12.40;99.90;;;;;;4973123;28;20121;-62
2021/05/15 06:15:21;;;;;;;2.75;1.60;;;12.40;99.90;;;;;;4971570;28;20042;-63
2021/05/15 06:17:47;;;;;;;2.50;1.65;;;12.50;99.90;;;;;;4954000;28;20023;-62
2021/05/15 06:20:13;;;;;;;4.13;1.83;;;12.40;99.90;;;;;;4953658;28;20142;-64
2021/05/15 06:22:39;;;;;;;3.90;1.60;;;12.50;99.90;;;;;;4971761;28;20027;-62
2021/05/15 06:25:05;;;;;;;4.22;2.08;;;12.60;99.90;;;;;;4971583;28;20559;-61
2021/05/15 06:27:30;;;;;;;3.42;1.95;;;12.60;99.90;;;;;;4952764;28;20055;-62
2021/05/15 06:29:56;;;;;;;2.35;1.80;;;12.80;99.90;;;;;;4971060;28;20396;-62
2021/05/15 06:32:22;;;;;;;4.05;1.45;;;12.80;99.90;;;;;;4953725;28;20022;-62
2021/05/15 06:34:47;;;;;;;3.03;1.65;;;13.00;99.90;;;;;;4971538;28;20073;-62
2021/05/15 06:37:13;;;;;;;4.63;1.58;;;13.00;99.90;;;;;;4953204;28;20038;-72
2021/05/15 06:39:39;;;;;;;3.63;1.45;;;13.10;99.90;;;;;;4971061;28;20035;-62
2021/05/15 06:42:05;;;;;;;1.92;1.67;;;13.10;99.90;;;;;;4971154;28;20054;-63
2021/05/15 06:44:30;;;;;;;3.33;2.20;;;13.20;99.90;;;;;;4953083;28;20476;-62
2021/05/15 06:46:56;;;;;;;2.92;1.80;;;13.20;99.90;;;;;;4971291;28;20027;-63
2021/05/15 06:49:22;;;;;;;3.05;1.80;;;13.40;99.90;;;;;;4970745;28;20027;-64
2021/05/15 06:51:47;;;;;;;3.05;1.35;;;13.40;99.90;;;;;;4971233;28;20093;-62
2021/05/15 06:54:13;;;;;;;2.63;2.42;;;13.50;99.90;;;;;;4953542;28;20026;-65
2021/05/15 06:56:39;;;;;;;3.63;2.05;;;13.60;99.90;;;;;;4953356;28;20440;-61
2021/05/15 06:59:05;;;;;;;2.70;1.95;;;13.70;99.90;;;;;;4970840;28;20057;-64
2021/05/15 07:01:31;;;;;;;2.80;2.05;;;13.60;99.90;;;;;;4970443;28;20123;-63
2021/05/15 07:03:56;;;;;;;3.75;1.98;;;13.50;99.90;;;;;;4953619;28;20085;-64
2021/05/15 07:06:22;;;;;;;1.80;1.70;;;13.70;99.90;;;;;;4970682;28;20050;-63
2021/05/15 07:08:47;;;;;;;3.45;1.92;;;13.60;99.90;;;;;;4971246;28;20023;-63
2021/05/15 07:11:13;;;;;;;3.25;1.83;;;13.50;99.90;;;;;;4970897;28;20038;-64
2021/05/15 07:13:39;;;;;;;1.83;1.50;;;13.40;99.90;;;;;;4952638;28;20062;-63
2021/05/15 07:16:04;;;;;;;3.00;1.92;;;13.40;99.90;;;;;;4953449;28;20062;-64
2021/05/15 07:18:30;;;;;;;5.93;1.83;;;13.40;99.90;;;;;;4970667;28;20453;-63
2021/05/15 07:20:56;;;;;;;2.85;2.05;;;13.60;99.90;;;;;;4970691;28;20035;-62
2021/05/15 07:23:21;;;;;;;9.60;1.95;;;13.50;99.90;;;;;;4952510;28;20026;-66
2021/05/15 07:25:47;;;;;;;2.05;1.75;;;13.50;99.90;;;;;;4971163;28;20337;-63
2021/05/15 07:28:13;;;;;;;2.58;2.22;;;13.60;99.90;;;;;;4953254;28;20306;-63
2021/05/15 07:30:38;;;;;;;2.22;1.80;;;13.60;99.90;;;;;;4952688;28;20122;-63
2021/05/15 07:33:04;;;;;;;3.22;2.15;;;13.90;99.90;;;;;;4970774;28;20050;-63
2021/05/15 07:35:30;;;;;;;2.38;2.15;;;14.00;99.90;;;;;;4952424;28;20031;-63
2021/05/15 07:37:55;;;;;;;2.45;2.00;;;14.00;99.90;;;;;;4970719;28;20042;-64
2021/05/15 07:40:21;;;;;;;3.65;2.95;;;14.20;99.90;;;;;;4970080;28;20039;-64
2021/05/15 07:42:47;;;;;;;4.30;2.38;;;14.20;99.90;;;;;;4956677;28;20027;-63
2021/05/15 07:45:14;;;;;;;3.80;2.03;;;14.50;99.90;;;;;;4974693;28;20031;-63
2021/05/15 07:47:42;;;;;;;3.15;2.03;;;14.40;99.90;;;;;;4956366;28;20033;-64
2021/05/15 07:50:09;;;;;;;4.03;2.60;;;14.20;99.90;;;;;;4956820;28;20098;-64
2021/05/15 07:52:35;;;;;;;5.00;2.50;;;14.10;99.90;;;;;;4956189;28;20030;-63
2021/05/15 07:55:01;;;;;;;5.50;2.85;;;14.10;99.90;;;;;;4956611;28;20039;-64
2021/05/15 07:57:26;;;;;;;3.83;2.50;;;14.20;99.90;;;;;;4973547;28;20030;-63
2021/05/15 07:59:52;;;;;;;2.80;2.17;;;14.20;99.90;;;;;;4956591;28;20042;-64
2021/05/15 08:02:18;;;;;;;2.55;1.75;;;14.40;99.90;;;;;;4973971;28;20096;-76
2021/05/15 08:04:44;;;;;;;3.17;2.30;;;14.80;99.90;;;;;;4974403;28;20382;-63
2021/05/15 08:07:10;;;;;;;2.65;2.10;;;14.80;99.90;;;;;;4974127;28;20377;-62
2021/05/15 08:09:35;;;;;;;5.20;2.35;;;15.00;99.90;;;;;;4973400;28;20027;-64
2021/05/15 08:12:01;;;;;;;8.55;2.10;;;14.90;99.90;;;;;;4973667;28;20169;-63
2021/05/15 08:14:27;;;;;;;6.30;2.35;;;14.80;99.90;;;;;;4955892;28;20405;-63
2021/05/15 08:16:53;;;;;;;4.50;2.28;;;15.10;99.90;;;;;;4956545;28;20030;-64
2021/05/15 08:19:19;;;;;;;3.83;2.17;;;15.10;99.90;;;;;;4956090;28;20046;-64
2021/05/15 08:21:45;;;;;;;5.47;1.50;;;15.00;99.90;;;;;;4956042;28;20543;-65
2021/05/15 08:24:11;;;;;;;2.97;1.80;;;14.80;99.90;;;;;;4955514;28;20176;-63
2021/05/15 08:26:37;;;;;;;2.13;1.60;;;14.80;99.90;;;;;;4956005;28;20034;-63
2021/05/15 08:29:03;;;;;;;2.10;1.90;;;14.70;99.90;;;;;;4956305;28;20035;-63
2021/05/15 08:31:29;;;;;;;3.63;1.70;;;14.50;99.90;;;;;;4973116;28;20081;-61
2021/05/15 08:33:54;;;;;;;2.95;1.10;;;14.60;99.90;;;;;;4973544;28;20030;-63
2021/05/15 08:36:20;;;;;;;3.35;1.95;;;14.60;99.90;;;;;;4973302;28;20038;-75
2021/05/15 08:38:46;;;;;;;2.08;1.70;;;14.70;99.90;;;;;;4956066;28;20049;-49
2021/05/15 08:41:12;;;;;;;4.57;2.40;;;15.00;99.90;;;;;;4955902;28;20039;-48
2021/05/15 08:43:41;;;;;;;4.93;2.40;;;15.30;99.90;;;;;;4955376;28;20022;-47
2021/05/15 08:46:13;;;;;;;4.40;1.75;;;15.60;99.70;;;;;;4973169;28;20034;-46
2021/05/15 08:48:40;;;;;;;1.80;1.63;;;15.60;99.10;;;;;;4939623;28;20435;-46
2021/05/15 08:51:06;;;;;;;3.50;1.73;;;15.50;98.70;;;;;;4973066;28;20195;-47
2021/05/15 08:53:32;;;;;;;1.77;1.60;;;15.50;99.20;;;;;;4972701;28;20059;-47
2021/05/15 08:55:58;;;;;;;2.75;1.70;;;15.80;98.40;;;;;;4972971;28;20078;-46
2021/05/15 08:58:23;;;;;;;3.70;1.73;;;15.80;97.50;;;;;;4971276;28;20027;-63
2021/05/15 09:00:50;;;;;;;3.53;1.92;;;16.10;96.20;;;;;;4971885;28;20125;-63
2021/05/15 09:03:19;;;;;;;4.38;2.05;;;15.80;96.40;;;;;;4972379;28;20415;-62
2021/05/15 09:05:50;;;;;;;4.35;1.55;;;15.70;96.80;;;;;;4954264;28;20030;-63
2021/05/15 09:08:17;;;;;;;3.75;1.80;;;15.40;96.50;;;;;;4971522;28;20093;-63
2021/05/15 09:10:45;;;;;;;3.25;1.88;;;15.00;97.60;;;;;;4960326;28;20502;-63
2021/05/15 09:13:18;;;;;;;2.90;2.08;;;15.20;97.20;;;;;;4954643;28;20476;-62
2021/05/15 09:15:51;;;;;;;3.20;2.00;;;15.00;98.10;;;;;;4971482;28;20205;-67
2021/05/15 09:18:20;;;;;;;4.05;1.80;;;15.00;98.10;;;;;;4954528;28;20031;-63
2021/05/15 09:20:47;;;;;;;12.80;4.25;;;14.80;98.40;;;;;;4971365;28;20039;-63
2021/05/15 09:23:15;;;;;;;4.40;1.98;;;14.70;98.90;;;;;;4954400;28;20118;-62
2021/05/15 09:25:43;;;;;;;3.15;2.13;;;14.90;98.90;;;;;;4971593;28;20711;-63
2021/05/15 09:28:08;;;;;;;2.30;1.80;;;15.40;98.00;;;;;;4971581;28;20031;-64
2021/05/15 09:30:34;;;;;;;8.82;3.00;;;15.90;98.00;;;;;;4953840;28;20031;-61
2021/05/15 09:33:14;;;;;;;2.60;1.90;;;16.10;97.60;;;;;;4971369;28;20049;-61
2021/05/15 09:35:40;;;;;;;6.18;2.28;;;;;;;;;;4953452;28;20037;-64
2021/05/15 09:38:06;;;;;;;2.42;1.75;;;;;;;;;;4953902;28;20089;-62
2021/05/15 09:40:32;;;;;;;2.95;1.95;;;;;;;;;;4953186;28;20554;-62
2021/05/15 09:43:00;;;;;;;3.58;2.08;;;16.10;99.90;;;;;;4954318;28;20536;-62
2021/05/15 09:45:28;;;;;;;2.53;1.95;;;16.20;99.90;;;;;;4971139;28;20027;-49
2021/05/15 09:47:59;;;;;;;5.22;2.05;;;16.20;99.90;;;;;;4941024;29;20031;-49
2021/05/15 09:50:28;;;;;;;15.95;2.53;;;16.10;99.90;;;;;;4952191;29;20031;-50
2021/05/15 09:53:14;;;;;;;3.20;2.10;;;15.70;99.90;;;;;;4935896;29;20031;-57
2021/05/15 09:55:43;;;;;;;3.03;1.73;;;15.50;99.90;;;;;;4946003;28;20162;-63
2021/05/15 09:58:10;;;;;;;4.38;2.38;;;15.20;99.90;;;;;;4955333;28;20030;-67
2021/05/15 10:00:50;;;;;;;48.83;4.43;;;14.80;99.90;;;;;;4954741;28;20042;-51
2021/05/15 10:03:27;;;;;;;4.37;1.77;;;14.70;99.90;;;;;;4972743;28;20377;-66
2021/05/15 10:06:13;;;;;;;3.17;2.22;;;15.00;99.90;;;;;;4954528;28;20037;-67
2021/05/15 10:08:40;;;;;;;7.90;3.75;;;14.80;99.90;;;;;;4954111;28;20045;-66
2021/05/15 10:11:06;;;;;;;8.35;2.35;;;14.70;99.90;;;;;;4971851;28;20034;-67
2021/05/15 10:13:37;;;;;;;6.25;2.20;;;14.60;99.90;;;;;;4971432;28;20035;-70
2021/05/15 10:16:05;;;;;;;4.18;2.45;;;15.10;99.90;;;;;;4954098;28;20118;-70
2021/05/15 10:18:32;;;;;;;3.92;1.33;;;15.20;99.90;;;;;;4970146;28;20048;-69
2021/05/15 10:20:58;;;;;;;1.48;0.73;;;15.00;99.90;;;;;;4971675;28;20047;-68
2021/05/15 10:23:38;;;;;;;1.23;0.38;;;14.20;99.90;;;;;;4953654;28;20035;-71
2021/05/15 10:26:06;;;;;;;0.28;0.20;;;13.90;99.90;;;;;;4970781;28;20495;-67
2021/05/15 10:28:35;;;;;;;0.52;0.32;;;13.60;99.90;;;;;;4953704;28;20023;-67
2021/05/15 10:31:16;;;;;;;1.73;0.35;;;13.40;99.90;;;;;;4954604;28;20042;-67
2021/05/15 10:33:44;;;;;;;1.27;0.40;;;13.50;99.90;;;;;;4955083;28;20039;-69
2021/05/15 10:36:22;;;;;;;1.50;0.60;;;13.40;99.90;;;;;;4953288;28;20377;-70
2021/05/15 10:38:49;;;;;;;1.08;0.50;;;13.50;99.90;;;;;;4952490;28;20202;-68
2021/05/15 10:41:20;;;;;;;5.55;1.17;;;13.50;99.90;;;;;;4952170;28;20485;-69
2021/05/15 10:43:49;;;;;;;1.98;0.30;;;13.40;99.90;;;;;;4969518;28;20054;-68
2021/05/15 10:46:19;;;;;;;2.03;0.70;;;13.30;99.90;;;;;;4961751;28;20034;-69
2021/05/15 10:49:09;;;;;;;1.33;0.90;;;13.60;99.90;;;;;;4972304;28;20116;-64
2021/05/15 10:51:50;;;;;;;1.40;0.60;;;13.80;99.90;;;;;;4972381;28;20030;-65
2021/05/15 10:54:31;;;;;;;2.20;0.60;;;13.60;99.90;;;;;;4972149;28;20034;-66
2021/05/15 10:57:08;;;;;;;2.15;0.57;;;13.60;99.90;;;;;;4944901;28;20464;-66
2021/05/15 10:59:35;;;;;;;3.30;0.98;;;13.60;99.90;;;;;;4963779;28;20049;-66
2021/05/15 11:02:06;;;;;;;6.10;0.55;;;13.70;99.90;;;;;;4956491;28;20030;-67
2021/05/15 11:04:35;;;;;;;0.90;0.50;;;14.00;99.90;;;;;;4961454;28;20127;-67
2021/05/15 11:07:10;;;;;;;2.65;0.90;;;14.20;99.90;;;;;;4955828;28;20070;-65
2021/05/15 11:09:38;;;;;;;1.30;0.43;;;14.30;99.90;;;;;;4955199;28;20034;-65
2021/05/15 11:12:15;;;;;;;0.63;0.47;;;14.30;99.90;;;;;;4951815;28;20480;-66
2021/05/15 11:14:44;;;;;;;0.82;0.22;;;14.50;99.90;;;;;;4959812;28;20129;-64
2021/05/15 11:17:26;;;;;;;2.00;0.55;;;14.70;99.90;;;;;;4976761;28;20031;-68
2021/05/15 11:20:03;;;;;;;1.35;0.40;;;14.70;99.90;;;;;;4969159;28;20035;-66
2021/05/15 11:22:50;;;;;;;1.48;0.30;;;14.50;99.90;;;;;;4975656;28;20502;-65
2021/05/15 11:25:18;;;;;;;0.73;0.30;;;14.70;99.90;;;;;;4974782;28;20094;-68
2021/05/15 11:27:55;;;;;;;3.10;0.30;;;14.60;99.90;;;;;;4962550;28;20027;-65
2021/05/15 11:30:29;;;;;;;2.03;0.40;;;14.60;99.90;;;;;;4967563;28;20049;-65
2021/05/15 11:33:11;;;;;;;0.55;0.15;;;14.90;99.90;;;;;;4993542;28;20065;-65
2021/05/15 11:35:45;;;;;;;0.63;0.38;;;15.00;99.90;;;;;;4992920;28;20026;-66
2021/05/15 11:38:20;;;;;;;1.13;0.22;;;15.20;99.90;;;;;;4993339;28;20045;-64
2021/05/15 11:40:46;;;;;;;0.95;0.45;;;15.40;99.90;;;;;;4973919;28;20095;-64
2021/05/15 11:43:25;;;;;;;1.27;0.20;;;15.60;99.90;;;;;;4993884;28;20590;-65
2021/05/15 11:45:52;;;;;;;1.05;0.47;;;14.90;99.90;;;;;;4961973;28;20573;-65
2021/05/15 11:48:39;;;;;;;4.65;0.65;;;14.80;99.90;;;;;;4961087;28;20088;-65
2021/05/15 11:51:17;;;;;;;2.40;0.75;;;15.20;99.90;;;;;;4965177;28;20035;-68
2021/05/15 11:53:48;;;;;;;1.75;0.47;;;15.50;99.90;;;;;;4959447;28;20050;-67
2021/05/15 11:56:18;;;;;;;;;;;15.60;99.90;;;;;;4964548;28;20141;-66
2021/05/15 11:58:45;;;;;;;0.77;0.30;;;15.20;99.90;;;;;;4959790;28;19906;-65
2021/05/15 12:01:21;;;;;;;0.77;0.20;;;15.20;99.90;;;;;;4964918;28;20050;-66
2021/05/15 12:03:47;;;;;;;2.13;0.47;;;15.50;99.90;;;;;;4967533;28;20057;-66
2021/05/15 12:06:14;;;;;;;1.30;0.35;;;15.60;99.90;;;;;;4969363;28;20066;-66
2021/05/15 12:08:40;;;;;;;0.75;0.32;;;15.60;99.90;;;;;;4974525;28;20092;-65
2021/05/15 12:11:07;;;;;;;0.60;0.45;;;15.70;99.90;;;;;;4975648;28;20046;-67
2021/05/15 12:13:33;;;;;;;3.35;0.50;;;15.60;99.90;;;;;;4992021;28;20038;-66
2021/05/15 12:16:01;;;;;;;1.33;0.40;;;15.60;99.90;;;;;;4974925;28;20030;-65
2021/05/15 12:18:28;;;;;;;3.50;0.50;;;15.90;99.90;;;;;;4981669;28;20075;-65
2021/05/15 12:20:55;;;;;;;3.38;0.50;;;16.50;99.90;;;;;;4963906;28;20043;-65
2021/05/15 12:23:25;;;;;;;1.23;0.60;;;16.60;99.90;;;;;;4966835;28;20027;-66
2021/05/15 12:26:00;;;;;;;2.33;0.60;;;16.30;99.90;;;;;;4960638;28;20035;-67
2021/05/15 12:28:28;;;;;;;2.17;0.65;;;16.10;99.90;;;;;;4975069;28;20033;-66
2021/05/15 12:30:58;;;;;;;0.88;0.55;;;16.00;99.90;;;;;;4973139;28;20038;-65
2021/05/15 12:33:25;;;;;;;2.50;0.80;;;16.40;99.90;;;;;;4974176;28;20019;-64
2021/05/15 12:36:07;;;;;;;5.15;0.47;;;16.60;99.90;;;;;;4956708;28;20149;-64
2021/05/15 12:38:54;;;;;;;3.17;0.50;;;16.90;99.90;;;;;;4955739;28;20186;-72
2021/05/15 12:41:22;;;;;;;1.70;0.52;;;17.20;99.90;;;;;;4955119;28;20046;-65
2021/05/15 12:44:01;;;;;;;5.43;0.68;;;17.20;99.90;;;;;;4958765;28;20034;-65
2021/05/15 12:46:30;;;;;;;0.73;0.20;;;17.60;97.60;;;;;;4992609;28;20033;-66
2021/05/15 12:48:58;;;;;;;0.65;0.20;;;17.80;99.90;;;;;;4974503;28;20029;-64
2021/05/15 12:51:34;;;;;;;1.60;0.15;;;17.50;95.30;;;;;;4974884;28;20035;-65
2021/05/15 12:54:17;;;;;;;2.42;0.30;;;16.60;95.70;;;;;;4991591;28;20389;-66
2021/05/15 12:56:53;;;;;;;0.52;0.30;;;16.20;97.00;;;;;;4978341;28;20157;-66